Time;durP1;ratioP1;P1;durP2;ratioP2;P2;SDS_P1;SDS_P2;PMS_P1;PMS_P2;Temp;Humidity;BMP_temperature;BMP_pressure;BME280_temperature;BME280_humidity;BME280_pressure;Samples;Min_cycle;Max_cycle;Signal;HPM_P1;HPM_P2
2022/03/14 00:00:44;;;;;;;;;2.00;2.00;;;;;9.14;68.58;101244.63;5044998;28;45488;-61
2022/03/14 00:03:10;;;;;;;;;3.60;3.00;;;;;9.09;68.37;101248.78;5030781;28;45978;-61
2022/03/14 00:05:36;;;;;;;;;3.00;3.00;;;;;8.74;68.49;101199.22;5034000;28;46533;-59
2022/03/14 00:08:02;;;;;;;;;1.75;1.75;;;;;9.15;68.96;101257.28;5036546;28;45283;-58
2022/03/14 00:10:28;;;;;;;;;2.75;2.25;;;;;9.14;68.91;101258.31;5035240;28;45282;-56
2022/03/14 00:12:55;;;;;;;;;3.00;3.00;;;;;9.11;68.65;101261.44;5035841;28;45351;-55
2022/03/14 00:15:21;;;;;;;;;4.20;2.60;;;;;9.18;68.69;101268.69;5035256;28;46616;-55
2022/03/14 00:17:47;;;;;;;;;4.50;3.00;;;;;9.17;67.93;101269.75;5035075;28;45486;-55
2022/03/14 00:20:13;;;;;;;;;2.00;2.00;;;;;9.17;68.23;101286.19;5036615;28;45453;-53
2022/03/14 00:22:40;;;;;;;;;2.00;1.00;;;;;9.13;67.93;101290.31;5036630;28;45372;-54
2022/03/14 00:25:07;;;;;;;;;2.00;2.00;;;;;9.18;68.77;101289.78;5036194;28;46031;-52
2022/03/14 00:27:35;;;;;;;;;3.80;2.40;;;;;9.14;68.04;101285.72;5036487;28;45648;-53
2022/03/14 00:30:03;;;;;;;;;1.20;1.20;;;;;9.06;67.76;101287.50;5035394;28;45448;-56
2022/03/14 00:32:29;;;;;;;;;2.80;2.80;;;;;8.94;68.14;101275.31;5035480;28;45441;-55
2022/03/14 00:34:55;;;;;;;;;3.40;3.40;;;;;8.78;68.08;101248.97;5035724;28;45726;-54
2022/03/14 00:37:20;;;;;;;;;2.75;2.00;;;;;9.29;68.10;101326.78;5034288;28;45470;-55
2022/03/14 00:39:46;;;;;;;;;6.00;2.50;;;;;9.30;67.76;101334.84;5036598;28;45343;-55
2022/03/14 00:42:13;;;;;;;;;2.20;2.20;;;;;9.13;67.94;101311.41;5036452;28;45275;-56
2022/03/14 00:44:39;;;;;;;;;2.20;2.20;;;;;9.17;68.00;101312.69;5034762;28;45698;-55
2022/03/14 00:47:04;;;;;;;;;6.50;3.00;;;;;9.33;67.67;101348.13;5034799;28;45464;-54
2022/03/14 00:49:30;;;;;;;;;4.50;2.25;;;;;9.33;67.05;101344.53;5036057;28;45369;-56
2022/03/14 00:51:55;;;;;;;;;3.25;2.00;;;;;9.36;66.92;101347.75;5036394;28;45339;-53
2022/03/14 00:54:21;;;;;;;;;2.00;2.00;;;;;9.39;67.55;101354.75;5035020;28;45407;-56
2022/03/14 00:56:46;;;;;;;;;2.00;2.00;;;;;9.39;66.65;101356.66;5000957;28;45361;-57
2022/03/14 00:59:12;;;;;;;;;6.25;3.00;;;;;9.41;67.53;101368.25;5016406;28;45524;-57
2022/03/14 01:01:38;;;;;;;;;2.60;2.20;;;;;9.37;66.48;101367.78;4997983;28;45572;-57
2022/03/14 01:04:04;;;;;;;;;1.00;1.00;;;;;9.36;66.77;101372.41;5015770;28;45515;-58
2022/03/14 01:06:30;;;;;;;;;5.50;2.75;;;;;9.27;67.11;101364.47;5015971;28;45401;-55
2022/03/14 01:08:55;;;;;;;;;1.20;1.20;;;;;9.30;67.54;101378.66;5016031;28;45430;-54
2022/03/14 01:11:21;;;;;;;;;2.25;2.25;;;;;9.33;67.13;101391.97;5016321;28;45271;-57
2022/03/14 01:13:46;;;;;;;;;2.00;2.00;;;;;9.10;66.92;101350.97;4998111;28;45373;-55
2022/03/14 01:16:12;;;;;;;;;2.75;2.00;;;;;9.33;66.78;101391.09;5014596;28;46008;-56
2022/03/14 01:18:37;;;;;;;;;2.00;1.00;;;;;9.30;66.88;101394.25;5015624;28;45430;-56
2022/03/14 01:21:03;;;;;;;;;3.00;1.25;;;;;8.95;66.78;101349.06;5016280;28;45366;-56
2022/03/14 01:23:28;;;;;;;;;2.00;2.00;;;;;9.21;66.28;101388.84;5014252;28;45776;-55
2022/03/14 01:25:54;;;;;;;;;2.25;2.25;;;;;9.26;66.41;101410.19;5015518;28;45317;-56
2022/03/14 01:28:19;;;;;;;;;3.25;2.50;;;;;9.25;67.21;101413.97;5015547;28;45363;-58
2022/03/14 01:30:45;;;;;;;;;1.00;1.00;;;;;9.23;66.99;101413.28;5014586;28;45342;-57
2022/03/14 01:33:11;;;;;;;;;1.75;1.00;;;;;9.25;66.16;101416.72;5015393;28;46228;-56
2022/03/14 01:35:37;;;;;;;;;3.00;1.80;;;;;8.99;66.85;101379.66;5014183;28;45419;-57
2022/03/14 01:38:03;;;;;;;;;1.80;1.80;;;;;9.25;66.80;101419.47;5015423;28;45480;-56
2022/03/14 01:40:29;;;;;;;;;1.75;1.75;;;;;9.15;66.88;101418.88;5015794;28;45389;-55
2022/03/14 01:42:54;;;;;;;;;3.00;1.25;;;;;9.17;66.99;101422.25;5015022;28;45604;-56
2022/03/14 01:45:21;;;;;;;;;2.50;1.00;;;;;9.14;66.62;101428.13;5014406;28;45456;-57
2022/03/14 01:47:47;;;;;;;;;3.00;2.00;;;;;9.14;67.16;101428.97;5014269;28;45499;-58
2022/03/14 01:50:13;;;;;;;;;1.40;1.20;;;;;9.16;66.95;101431.50;5014469;28;45470;-57
2022/03/14 01:52:39;;;;;;;;;3.40;3.40;;;;;9.14;67.53;101436.34;5015281;28;45961;-53
2022/03/14 01:55:06;;;;;;;;;2.40;2.00;;;;;9.09;67.25;101432.25;5015003;28;45438;-57
2022/03/14 01:57:32;;;;;;;;;2.40;1.40;;;;;9.16;66.86;101440.59;5035215;28;45491;-59
2022/03/14 01:59:58;;;;;;;;;3.00;2.00;;;;;9.13;67.13;101440.94;5035802;28;45420;-54
2022/03/14 02:02:24;;;;;;;;;3.00;1.60;;;;;9.14;66.89;101444.56;5035678;28;46614;-56
2022/03/14 02:04:49;;;;;;;;;2.00;1.50;;;;;9.14;67.20;101450.91;5035415;28;45359;-58
2022/03/14 02:07:14;;;;;;;;;1.00;1.00;;;;;8.95;67.03;101422.97;5035120;28;45392;-58
2022/03/14 02:09:40;;;;;;;;;2.75;1.50;;;;;9.11;67.23;101445.78;5035718;28;45400;-56
2022/03/14 02:12:07;;;;;;;;;2.25;2.25;;;;;9.11;67.01;101440.28;5027632;28;46551;-55
2022/03/14 02:14:35;;;;;;;;;1.20;1.00;;;;;9.05;67.02;101430.94;5018324;28;45214;-55
2022/03/14 02:17:00;;;;;;;;;1.20;1.20;;;;;9.10;67.06;101438.59;5035210;28;45285;-57
2022/03/14 02:19:26;;;;;;;;;2.00;2.00;;;;;9.08;66.59;101441.50;5035628;28;45809;-56
2022/03/14 02:21:52;;;;;;;;;3.25;0.75;;;;;8.48;66.57;101350.97;5033681;28;46346;-55
2022/03/14 02:24:17;;;;;;;;;2.50;1.75;;;;;9.08;67.18;101441.50;5033818;28;45787;-56
2022/03/14 02:26:44;;;;;;;;;2.25;2.25;;;;;8.99;66.65;101436.28;5033971;28;45416;-55
2022/03/14 02:29:10;;;;;;;;;5.00;2.00;;;;;8.93;67.05;101433.25;5035002;28;45625;-55
2022/03/14 02:31:36;;;;;;;;;2.00;2.00;;;;;8.75;67.27;101411.66;5034795;28;46392;-56
2022/03/14 02:34:03;;;;;;;;;1.00;1.00;;;;;8.99;67.96;101447.25;5034779;28;45353;-55
2022/03/14 02:36:29;;;;;;;;;2.00;2.00;;;;;8.91;67.63;101451.75;5034671;28;45406;-54
2022/03/14 02:38:54;;;;;;;;;2.50;2.50;;;;;8.74;68.13;101412.72;5035049;28;45468;-57
2022/03/14 02:41:22;;;;;;;;;2.25;2.25;;;;;9.01;66.98;101456.16;5033431;28;46055;-57
2022/03/14 02:43:47;;;;;;;;;2.20;2.20;;;;;8.96;66.72;101456.66;5033457;28;45471;-54
2022/03/14 02:46:14;;;;;;;;;2.00;2.00;;;;;8.96;67.60;101462.16;5034903;28;45406;-56
2022/03/14 02:48:40;;;;;;;;;4.80;2.60;;;;;9.00;67.46;101482.66;5033892;28;45923;-58
2022/03/14 02:51:05;;;;;;;;;3.75;2.00;;;;;8.99;68.20;101488.31;5033439;28;45440;-55
2022/03/14 02:53:31;;;;;;;;;1.00;1.00;;;;;8.98;67.73;101486.63;5034658;28;45358;-56
2022/03/14 02:55:56;;;;;;;;;3.75;2.00;;;;;8.97;67.55;101494.00;5032955;28;45371;-54
2022/03/14 02:58:22;;;;;;;;;1.25;1.25;;;;;8.78;68.28;101473.41;5035013;28;45525;-57
2022/03/14 03:00:50;;;;;;;;;2.00;2.00;;;;;8.88;67.80;101497.81;5037835;28;46051;-57
2022/03/14 03:03:15;;;;;;;;;2.80;1.60;;;;;8.89;68.33;101507.72;5037696;28;45214;-57
2022/03/14 03:05:44;;;;;;;;;5.00;2.00;;;;;8.81;67.96;101500.44;5038049;28;45350;-57
2022/03/14 03:08:10;;;;;;;;;3.00;1.80;;;;;8.83;68.68;101520.25;5053092;28;45489;-56
2022/03/14 03:10:36;;;;;;;;;3.60;2.40;;;;;8.83;67.81;101525.75;5036037;28;45834;-58
2022/03/14 03:13:02;;;;;;;;;3.00;3.00;;;;;8.77;68.32;101530.06;5008106;27;45708;-59
2022/03/14 03:15:28;;;;;;;;;2.60;2.40;;;;;8.75;68.26;101545.78;5038722;28;45445;-60
2022/03/14 03:17:53;;;;;;;;;2.75;2.75;;;;;8.76;67.74;101546.66;5046952;28;45776;-61
2022/03/14 03:20:19;;;;;;;;;3.50;3.50;;;;;8.75;67.55;101554.00;5057565;28;46470;-58
2022/03/14 03:22:45;;;;;;;;;2.00;1.50;;;;;8.75;67.99;101562.22;5055182;28;45342;-58
2022/03/14 03:25:10;;;;;;;;;4.25;3.00;;;;;8.67;68.54;101559.53;5056194;28;45440;-57
2022/03/14 03:27:36;;;;;;;;;1.50;1.50;;;;;8.48;68.43;101538.91;5038986;28;45385;-57
2022/03/14 03:30:02;;;;;;;;;0.00;0.00;;;;;8.63;68.64;101569.13;5056715;28;45749;-59
2022/03/14 03:32:27;;;;;;;;;2.00;2.00;;;;;8.67;68.25;101565.00;5055789;28;45806;-59
2022/03/14 03:34:53;;;;;;;;;3.50;1.50;;;;;8.64;68.24;101568.94;5057415;28;45444;-59
2022/03/14 03:37:19;;;;;;;;;4.50;1.75;;;;;8.64;68.30;101571.69;5057826;28;45630;-57
2022/03/14 03:39:44;;;;;;;;;4.50;1.50;;;;;8.59;67.71;101574.09;5056605;28;46523;-59
2022/03/14 03:42:10;;;;;;;;;2.00;2.00;;;;;8.54;68.47;101592.97;5057081;28;45415;-59
2022/03/14 03:44:36;;;;;;;;;6.25;2.25;;;;;8.55;68.18;101594.66;5057032;28;45555;-59
2022/03/14 03:47:02;;;;;;;;;6.50;3.00;;;;;8.45;67.98;101589.38;5056170;28;45416;-59
2022/03/14 03:49:28;;;;;;;;;1.20;1.00;;;;;8.51;68.03;101602.38;5055254;28;45380;-59
2022/03/14 03:51:53;;;;;;;;;1.25;1.25;;;;;8.52;68.17;101609.53;5057161;28;45202;-59
2022/03/14 03:54:20;;;;;;;;;1.00;1.00;;;;;8.52;68.53;101604.06;5055185;28;45511;-59
2022/03/14 03:56:46;;;;;;;;;1.40;1.40;;;;;8.32;68.73;101570.75;5055013;28;45291;-59
2022/03/14 03:59:11;;;;;;;;;1.50;1.50;;;;;8.53;68.37;101602.16;5072093;28;45470;-57
2022/03/14 04:01:37;;;;;;;;;5.75;4.25;;;;;8.32;68.58;101578.13;5056511;28;45810;-57
2022/03/14 04:04:03;;;;;;;;;5.60;3.80;;;;;8.49;68.30;101623.53;5057196;28;45471;-58
2022/03/14 04:06:30;;;;;;;;;3.00;3.00;;;;;8.45;68.58;101630.41;5057520;28;45318;-59
2022/03/14 04:09:00;;;;;;;;;3.00;3.00;;;;;8.43;68.37;101634.34;5056693;28;45465;-60
2022/03/14 04:11:26;;;;;;;;;4.40;3.40;;;;;8.45;67.77;101638.63;5055382;28;45373;-60
2022/03/14 04:13:51;;;;;;;;;2.00;2.00;;;;;8.35;68.50;101638.81;5057018;28;45323;-58
2022/03/14 04:16:18;;;;;;;;;5.75;4.25;;;;;8.22;68.24;101627.56;5057346;28;45674;-59
2022/03/14 04:18:46;;;;;;;;;8.00;3.00;;;;;8.30;68.11;101643.09;5055662;28;48693;-56
2022/03/14 04:21:15;;;;;;;;;3.00;3.00;;;;;8.26;67.96;101648.03;5055609;28;45414;-59
2022/03/14 04:23:41;;;;;;;;;3.00;3.00;;;;;8.25;68.04;101646.34;5055576;28;45333;-59
2022/03/14 04:26:06;;;;;;;;;4.00;4.00;;;;;8.32;68.29;101662.94;5072836;27;45652;-60
2022/03/14 04:28:36;;;;;;;;;4.25;2.75;;;;;8.07;67.64;101616.47;5056973;28;45463;-58
2022/03/14 04:31:02;;;;;;;;;4.60;2.40;;;;;8.28;67.93;101656.94;5057049;27;45429;-56
2022/03/14 04:33:28;;;;;;;;;2.60;2.60;;;;;8.26;68.11;101667.19;5056909;28;45989;-59
2022/03/14 04:35:53;;;;;;;;;2.50;0.50;;;;;8.27;67.75;101668.91;5056849;28;45277;-60
2022/03/14 04:38:19;;;;;;;;;3.25;2.00;;;;;8.30;68.18;101662.22;5072330;27;47602;-58
2022/03/14 04:40:44;;;;;;;;;1.25;1.25;;;;;8.27;67.68;101663.44;5056987;28;45297;-56
2022/03/14 04:43:10;;;;;;;;;5.25;2.75;;;;;8.35;68.10;101682.59;5056775;28;45358;-58
2022/03/14 04:45:36;;;;;;;;;3.00;3.00;;;;;8.34;67.25;101688.22;5056870;28;45348;-59
2022/03/14 04:48:06;;;;;;;;;2.00;2.00;;;;;8.32;67.95;101688.38;5056435;27;45724;-59
2022/03/14 04:50:32;;;;;;;;;3.80;2.40;;;;;8.31;67.42;101686.69;5056304;28;45284;-57
2022/03/14 04:52:57;;;;;;;;;2.00;2.00;;;;;8.07;67.23;101647.38;5056623;28;45335;-59
2022/03/14 04:55:23;;;;;;;;;5.00;3.00;;;;;8.20;67.46;101682.44;5056676;28;45314;-58
2022/03/14 04:57:49;;;;;;;;;2.75;2.75;;;;;8.14;67.50;101696.78;5055678;28;47011;-59
2022/03/14 05:00:15;;;;;;;;;4.50;2.00;;;;;8.14;67.63;101700.38;5054610;28;45362;-59
2022/03/14 05:02:40;;;;;;;;;2.20;2.20;;;;;7.78;67.44;101642.50;5027520;28;45532;-58
2022/03/14 05:05:13;;;;;;;;;4.20;3.40;;;;;8.12;67.53;101701.59;5055046;28;45641;-60
2022/03/14 05:07:39;;;;;;;;;6.40;3.00;;;;;7.92;67.71;101671.88;5054892;28;45835;-59
2022/03/14 05:10:09;;;;;;;;;1.80;1.80;;;;;8.02;67.64;101707.22;5055994;28;45700;-57
2022/03/14 05:12:34;;;;;;;;;2.00;2.00;;;;;8.04;67.74;101710.63;5055983;28;45362;-59
2022/03/14 05:15:01;;;;;;;;;2.50;2.50;;;;;8.07;67.70;101721.22;5056288;28;45575;-59
2022/03/14 05:17:29;;;;;;;;;7.00;3.00;;;;;8.08;67.79;101730.28;5055851;28;45514;-59
2022/03/14 05:19:54;;;;;;;;;2.40;2.00;;;;;8.06;67.71;101732.34;5055793;27;45784;-59
2022/03/14 05:22:20;;;;;;;;;3.50;3.50;;;;;8.06;67.88;101726.88;5056015;28;45270;-59
2022/03/14 05:24:46;;;;;;;;;2.20;2.20;;;;;8.07;67.99;101731.31;5055828;28;45544;-58
2022/03/14 05:27:12;;;;;;;;;5.75;3.00;;;;;8.05;68.01;101741.59;5055637;28;45401;-57
2022/03/14 05:29:38;;;;;;;;;3.00;3.00;;;;;8.04;67.64;101742.59;5056022;28;45543;-55
2022/03/14 05:32:04;;;;;;;;;3.50;3.00;;;;;7.99;68.13;101735.75;5056221;28;45396;-59
2022/03/14 05:34:29;;;;;;;;;6.00;5.00;;;;;8.03;67.72;101744.47;5056090;28;45511;-59
2022/03/14 05:36:55;;;;;;;;;7.75;5.25;;;;;8.03;68.13;101746.34;5054356;28;46742;-59
2022/03/14 05:39:20;;;;;;;;;4.25;2.25;;;;;8.04;68.10;101748.03;5055647;28;45447;-59
2022/03/14 05:41:46;;;;;;;;;7.25;3.50;;;;;7.71;67.56;101711.50;5055765;28;45445;-58
2022/03/14 05:44:11;;;;;;;;;5.25;3.00;;;;;8.02;67.22;101763.78;5055896;28;45376;-57
2022/03/14 05:46:37;;;;;;;;;5.00;5.00;;;;;7.95;67.33;101749.94;5055449;28;45400;-59
2022/03/14 05:49:04;;;;;;;;;5.00;5.00;;;;;7.99;67.69;101749.44;5054515;28;45779;-59
2022/03/14 05:51:30;;;;;;;;;3.00;1.80;;;;;7.98;67.71;101752.34;5055646;28;45409;-59
2022/03/14 05:53:55;;;;;;;;;4.50;4.50;;;;;7.97;67.42;101751.50;5055600;28;45570;-58
2022/03/14 05:56:21;;;;;;;;;4.00;4.00;;;;;7.97;67.68;101762.44;5053796;28;46725;-59
2022/03/14 05:58:47;;;;;;;;;6.25;3.50;;;;;7.96;67.66;101766.16;5055525;27;45421;-60
2022/03/14 06:01:14;;;;;;;;;5.50;5.50;;;;;7.94;67.48;101770.94;5055896;27;45480;-60
2022/03/14 06:03:40;;;;;;;;;6.60;5.80;;;;;7.94;67.83;101770.94;5055723;28;45321;-60
2022/03/14 06:06:17;;;;;;;;;4.00;2.00;;;;;7.97;67.60;101773.38;4976398;27;45841;-58
2022/03/14 06:08:43;;;;;;;;;6.20;3.80;;;;;7.97;67.81;101775.22;5034256;28;45425;-59
2022/03/14 06:11:09;;;;;;;;;9.50;7.25;;;;;7.97;67.58;101778.84;5034005;28;45474;-58
2022/03/14 06:13:35;;;;;;;;;5.00;4.00;;;;;7.97;67.40;101772.50;5017667;28;45318;-57
2022/03/14 06:16:01;;;;;;;;;5.00;3.40;;;;;7.79;68.13;101751.63;5034957;28;45458;-60
2022/03/14 06:18:29;;;;;;;;;8.50;5.50;;;;;7.94;67.34;101772.81;5035241;28;45334;-57
2022/03/14 06:20:55;;;;;;;;;8.00;3.40;;;;;7.79;67.57;101756.25;5035131;28;45448;-59
2022/03/14 06:23:20;;;;;;;;;5.60;5.60;;;;;7.98;67.69;101794.22;5035538;28;45531;-59
2022/03/14 06:25:46;;;;;;;;;6.00;5.00;;;;;7.97;67.98;101789.78;5034777;28;45412;-60
2022/03/14 06:28:12;;;;;;;;;7.00;4.50;;;;;8.00;67.16;101805.81;5033963;28;45405;-59
2022/03/14 06:30:37;;;;;;;;;5.00;5.00;;;;;8.00;67.48;101813.16;5035486;28;45481;-59
2022/03/14 06:33:03;;;;;;;;;5.00;5.00;;;;;8.02;67.27;101821.19;5035116;28;45374;-58
2022/03/14 06:35:28;;;;;;;;;8.50;7.00;;;;;7.95;67.72;101821.03;5038369;28;45504;-62
2022/03/14 06:37:54;;;;;;;;;8.00;6.00;;;;;8.05;67.64;101834.53;5038708;28;45326;-59
2022/03/14 06:40:21;;;;;;;;;8.50;6.75;;;;;8.03;67.45;101831.97;5038937;28;45456;-58
2022/03/14 06:42:49;;;;;;;;;5.40;3.80;;;;;7.92;67.68;101816.75;5037608;28;45433;-59
2022/03/14 06:45:19;;;;;;;;;9.60;5.00;;;;;8.14;67.26;101844.47;5038095;28;45833;-58
2022/03/14 06:47:44;;;;;;;;;4.20;2.80;;;;;8.13;67.36;101854.53;5037195;28;45674;-60
2022/03/14 06:50:10;;;;;;;;;7.00;5.50;;;;;8.16;67.19;101867.03;5038561;28;45369;-60
2022/03/14 06:52:36;;;;;;;;;3.40;3.40;;;;;8.17;67.14;101879.66;5038678;28;45304;-60
2022/03/14 06:55:05;;;;;;;;;6.75;5.50;;;;;8.12;67.27;101876.59;5038233;28;45502;-60
2022/03/14 06:57:31;;;;;;;;;7.00;5.00;;;;;8.16;67.26;101888.91;5037095;28;45948;-61
2022/03/14 06:59:57;;;;;;;;;5.75;5.75;;;;;8.02;67.73;101852.13;5038329;28;45427;-59
2022/03/14 07:02:24;;;;;;;;;4.25;4.00;;;;;8.19;67.51;101891.31;5020626;28;45377;-60
2022/03/14 07:04:50;;;;;;;;;6.00;5.00;;;;;8.18;66.42;101892.34;5037825;28;46475;-60
2022/03/14 07:07:15;;;;;;;;;4.75;3.50;;;;;8.12;66.26;101888.38;5028888;28;45357;-60
2022/03/14 07:09:41;;;;;;;;;7.75;6.25;;;;;8.01;67.04;101891.44;5061591;28;45391;-56
2022/03/14 07:12:10;;;;;;;;;6.75;6.75;;;;;7.98;67.30;101902.69;5057375;28;45534;-59
2022/03/14 07:14:36;;;;;;;;;5.60;5.00;;;;;8.03;66.96;101914.00;5055929;28;46876;-59
2022/03/14 07:17:01;;;;;;;;;7.00;5.75;;;;;8.08;66.97;101927.16;5057414;28;45405;-58
2022/03/14 07:19:27;;;;;;;;;6.25;3.50;;;;;7.95;66.89;101898.41;5056931;28;45500;-59
2022/03/14 07:21:52;;;;;;;;;7.25;6.00;;;;;8.14;66.83;101919.16;5057974;28;45634;-60
2022/03/14 07:24:18;;;;;;;;;9.50;8.00;;;;;8.17;66.38;101928.88;5057453;28;45412;-57
2022/03/14 07:26:43;;;;;;;;;6.00;6.00;;;;;8.13;67.21;101933.00;5057552;28;45456;-60
2022/03/14 07:29:09;;;;;;;;;10.50;6.75;;;;;8.10;66.33;101930.59;5056372;28;45379;-60
2022/03/14 07:31:37;;;;;;;;;7.00;5.50;;;;;8.16;66.79;101940.84;5057946;28;45424;-59
2022/03/14 07:34:14;;;;;;;;;9.80;9.80;;;;;8.22;66.10;101940.19;5056334;28;46492;-58
2022/03/14 07:36:40;;;;;;;;;7.00;6.00;;;;;8.18;66.49;101937.97;5057661;28;45309;-58
2022/03/14 07:39:06;;;;;;;;;8.20;6.20;;;;;7.90;67.43;101910.88;5057593;28;45334;-58
2022/03/14 07:41:32;;;;;;;;;9.50;7.75;;;;;8.08;67.28;101958.13;5056100;28;45508;-59
2022/03/14 07:44:00;;;;;;;;;6.50;6.00;;;;;8.05;66.84;101961.16;5057601;28;45428;-59
2022/03/14 07:46:26;;;;;;;;;7.20;6.20;;;;;8.06;66.89;101967.50;5055854;28;45325;-57
2022/03/14 07:48:51;;;;;;;;;12.40;11.00;;;;;8.08;66.74;101970.91;5056307;28;45786;-59
2022/03/14 07:51:17;;;;;;;;;18.75;14.25;;;;;8.05;67.34;101974.84;5057753;28;45692;-60
2022/03/14 07:53:43;;;;;;;;;11.25;10.00;;;;;7.96;67.41;101973.94;5055989;28;45520;-61
2022/03/14 07:56:11;;;;;;;;;6.00;6.00;;;;;7.91;67.73;101978.19;5055841;28;45497;-61
2022/03/14 07:58:37;;;;;;;;;12.20;10.60;;;;;7.94;67.02;101997.88;5039605;28;45476;-60
2022/03/14 08:01:03;;;;;;;;;11.80;10.00;;;;;7.89;67.26;101988.44;5055796;28;45423;-60
2022/03/14 08:03:28;;;;;;;;;8.50;8.25;;;;;7.85;67.57;101982.47;5055872;28;46756;-60
2022/03/14 08:06:00;;;;;;;;;10.50;7.50;;;;;7.88;67.58;101984.00;5072631;28;45349;-61
2022/03/14 08:08:29;;;;;;;;;19.60;15.60;;;;;7.93;67.20;101993.44;5071174;28;45496;-60
2022/03/14 08:10:54;;;;;;;;;13.80;12.00;;;;;7.93;67.62;101993.44;5055801;28;45354;-60
2022/03/14 08:13:20;;;;;;;;;13.50;13.50;;;;;7.96;67.31;101989.50;5072255;28;45502;-61
2022/03/14 08:15:49;;;;;;;;;8.20;7.00;;;;;7.96;67.80;101998.56;5056888;28;45375;-61
2022/03/14 08:18:16;;;;;;;;;11.00;11.00;;;;;7.90;67.05;101991.00;5072324;28;45472;-61
2022/03/14 08:20:42;;;;;;;;;17.20;15.60;;;;;7.72;67.80;101950.97;5056910;28;45338;-60
2022/03/14 08:23:08;;;;;;;;;21.00;17.50;;;;;8.02;68.16;102004.38;5056767;28;45650;-60
2022/03/14 08:25:36;;;;;;;;;23.80;20.20;;;;;7.82;67.90;101974.56;5056330;28;45345;-60
2022/03/14 08:28:02;;;;;;;;;15.40;14.00;;;;;7.89;67.62;101988.44;5056757;28;45426;-60
2022/03/14 08:30:28;;;;;;;;;19.00;12.50;;;;;8.10;67.67;102024.44;5056144;28;45456;-61
2022/03/14 08:32:55;;;;;;;;;11.00;11.00;;;;;8.12;67.52;102021.53;5054935;28;45475;-61
2022/03/14 08:35:21;;;;;;;;;12.00;11.00;;;;;8.03;67.34;102012.44;5056380;28;45393;-59
2022/03/14 08:37:48;;;;;;;;;12.50;11.00;;;;;8.03;67.43;102006.09;5056173;28;45484;-61
2022/03/14 08:40:16;;;;;;;;;8.40;8.40;;;;;8.17;67.57;102021.03;5055639;28;45417;-60
2022/03/14 08:42:42;;;;;;;;;11.20;8.00;;;;;8.03;68.07;102011.56;5056174;28;46858;-57
2022/03/14 08:45:08;;;;;;;;;16.80;13.40;;;;;8.23;67.41;102031.31;5072224;28;45752;-59
2022/03/14 08:47:35;;;;;;;;;14.00;11.40;;;;;8.25;67.45;102040.22;5056085;28;45453;-60
2022/03/14 08:50:02;;;;;;;;;15.80;10.80;;;;;8.29;67.49;102036.13;5072251;27;45567;-61
2022/03/14 08:52:28;;;;;;;;;11.80;11.80;;;;;8.28;68.04;102038.00;5056074;28;45895;-59
2022/03/14 08:54:54;;;;;;;;;10.60;10.00;;;;;8.37;67.85;102051.69;5054906;28;45368;-61
2022/03/14 08:57:19;;;;;;;;;14.00;11.75;;;;;8.43;67.53;102047.47;5047671;28;46509;-63
2022/03/14 08:59:45;;;;;;;;;12.75;7.75;;;;;8.48;67.07;102054.16;5064910;27;46011;-62
2022/03/14 09:02:11;;;;;;;;;13.00;10.25;;;;;8.54;67.07;102056.25;5050590;28;45881;-64
2022/03/14 09:04:37;;;;;;;;;8.00;8.00;;;;;8.40;67.68;102024.03;5051434;28;45917;-65
2022/03/14 09:07:02;;;;;;;;;12.00;10.60;;;;;8.62;67.32;102051.81;5051277;28;45464;-64
2022/03/14 09:09:28;;;;;;;;;12.50;12.00;;;;;8.65;67.21;102046.88;5051419;28;45501;-64
2022/03/14 09:11:54;;;;;;;;;11.25;9.75;;;;;8.64;66.80;102042.44;5041896;28;45600;-60
2022/03/14 09:14:20;;;;;;;;;10.25;7.75;;;;;8.76;66.65;102059.38;5045180;28;45766;-59
2022/03/14 09:16:47;;;;;;;;;13.50;10.75;;;;;8.77;66.88;102063.88;5050834;28;46041;-58
2022/03/14 09:19:13;;;;;;;;;9.80;9.00;;;;;8.78;66.50;102068.31;5046767;28;45522;-61
2022/03/14 09:21:39;;;;;;;;;13.00;13.00;;;;;8.59;66.81;102033.03;5048367;28;45518;-61
2022/03/14 09:24:05;;;;;;;;;11.25;8.75;;;;;8.86;67.24;102069.34;5023333;27;45876;-61
2022/03/14 09:26:32;;;;;;;;;10.75;10.75;;;;;8.83;66.77;102048.63;5048272;28;45460;-63
2022/03/14 09:28:59;;;;;;;;;9.80;9.20;;;;;8.64;66.77;102014.22;5033534;27;45809;-61
2022/03/14 09:31:24;;;;;;;;;16.40;10.40;;;;;9.04;66.84;102072.81;5029967;28;45545;-62
2022/03/14 09:33:50;;;;;;;;;11.25;11.25;;;;;9.11;67.25;102077.59;5031601;28;45492;-62
2022/03/14 09:36:16;;;;;;;;;11.75;9.25;;;;;9.14;66.22;102075.38;5012680;28;46058;-61
2022/03/14 09:38:43;;;;;;;;;13.50;12.00;;;;;9.15;66.50;102081.69;5011653;28;45599;-62
2022/03/14 09:41:08;;;;;;;;;11.80;11.80;;;;;9.21;66.49;102081.03;5011352;28;47225;-62
2022/03/14 09:43:38;;;;;;;;;13.00;12.25;;;;;9.26;66.88;102081.38;5010040;28;45472;-62
2022/03/14 09:46:04;;;;;;;;;12.40;11.00;;;;;9.35;65.90;102068.53;5011395;28;45896;-62
2022/03/14 09:48:31;;;;;;;;;15.75;10.25;;;;;9.41;65.78;102076.09;5029204;28;45808;-59
2022/03/14 09:50:57;;;;;;;;;17.40;12.40;;;;;9.47;66.12;102080.88;5035972;28;45709;-61
2022/03/14 09:53:22;;;;;;;;;15.50;12.75;;;;;9.51;65.66;102080.53;5049883;28;45416;-62
2022/03/14 09:55:48;;;;;;;;;9.50;9.00;;;;;9.56;66.62;102089.94;5033201;28;45784;-62
2022/03/14 09:58:15;;;;;;;;;14.00;13.00;;;;;9.62;65.40;102091.13;5034743;28;45778;-60
2022/03/14 10:00:40;;;;;;;;;8.60;8.60;;;;;9.68;65.44;102074.00;5030154;28;45414;-61
2022/03/14 10:03:06;;;;;;;;;13.25;11.50;;;;;9.76;64.72;102073.97;5031163;28;45469;-58
2022/03/14 10:05:32;;;;;;;;;9.00;7.00;;;;;9.90;65.53;102083.41;5031426;28;45326;-61
2022/03/14 10:07:57;;;;;;;;;12.00;12.00;;;;;10.03;65.10;102091.06;5029413;28;45445;-62
2022/03/14 10:10:23;;;;;;;;;9.00;8.00;;;;;10.12;64.93;102074.56;5030728;28;45556;-62
2022/03/14 10:12:58;;;;;;;;;15.25;11.00;;;;;10.29;64.72;102081.72;5029933;28;45456;-61
2022/03/14 10:15:25;;;;;;;;;13.00;8.40;;;;;10.44;63.63;102075.53;5031304;28;45500;-62
2022/03/14 10:17:52;;;;;;;;;11.20;9.40;;;;;10.53;63.29;102068.09;5031548;28;45555;-61
2022/03/14 10:20:18;;;;;;;;;13.80;12.20;;;;;10.64;63.63;102078.69;5031017;28;45636;-61
2022/03/14 10:22:44;;;;;;;;;10.50;7.75;;;;;10.62;63.24;102056.03;5028635;28;45455;-59
2022/03/14 10:25:12;;;;;;;;;13.80;11.00;;;;;10.54;62.85;102036.88;5000145;28;45572;-60
2022/03/14 10:27:38;;;;;;;;;9.80;8.20;;;;;10.97;63.35;102081.25;5051520;28;45682;-61
2022/03/14 10:30:05;;;;;;;;;12.80;10.00;;;;;11.11;62.25;102098.00;5050858;28;46669;-61
2022/03/14 10:32:30;;;;;;;;;9.00;9.00;;;;;11.19;62.34;102091.56;5083195;27;45731;-59
2022/03/14 10:35:01;;;;;;;;;8.75;8.50;;;;;11.21;61.70;102082.09;5050103;28;45528;-58
2022/03/14 10:37:28;;;;;;;;;14.00;10.00;;;;;11.15;61.96;102060.84;5051261;28;45650;-60
2022/03/14 10:40:01;;;;;;;;;14.20;11.40;;;;;11.42;61.00;102093.47;5066233;28;47024;-64
2022/03/14 10:42:27;;;;;;;;;13.80;9.60;;;;;11.52;60.92;102100.41;5083088;27;45771;-59
2022/03/14 10:44:52;;;;;;;;;7.50;6.25;;;;;11.63;60.86;102099.09;5051048;28;45488;-59
2022/03/14 10:47:19;;;;;;;;;19.25;9.25;;;;;11.54;60.74;102050.75;5048372;28;45617;-57
2022/03/14 10:49:45;;;;;;;;;9.40;7.20;;;;;11.68;60.39;102067.47;5050503;28;45846;-58
2022/03/14 10:52:13;;;;;;;;;10.00;6.50;;;;;11.91;59.97;102086.66;5083187;27;45850;-57
2022/03/14 10:54:42;;;;;;;;;6.20;5.80;;;;;11.83;59.35;102061.94;5050814;28;45462;-57
2022/03/14 10:57:18;;;;;;;;;11.20;8.60;;;;;12.16;58.97;102087.25;5049190;28;45815;-54
2022/03/14 10:59:46;;;;;;;;;8.80;4.60;;;;;12.29;58.74;102089.34;5078991;27;46688;-62
2022/03/14 11:02:14;;;;;;;;;9.00;8.20;;;;;12.37;58.39;102087.53;5050423;28;45811;-57
2022/03/14 11:04:49;;;;;;;;;11.60;9.20;;;;;12.46;57.83;102089.13;5050605;28;45406;-55
2022/03/14 11:07:19;;;;;;;;;15.80;10.00;;;;;12.27;57.99;102047.38;5049433;28;45714;-55
2022/03/14 11:09:52;;;;;;;;;6.80;4.80;;;;;12.65;58.08;102089.59;5050030;28;46774;-63
2022/03/14 11:12:18;;;;;;;;;8.00;5.20;;;;;12.63;57.48;102067.75;5047387;28;45437;-57
2022/03/14 11:14:57;;;;;;;;;5.60;3.80;;;;;12.88;56.68;102093.03;5050245;28;45568;-58
2022/03/14 11:17:30;;;;;;;;;3.60;3.00;;;;;12.99;55.64;102085.31;5050592;28;45547;-58
2022/03/14 11:19:56;;;;;;;;;9.40;5.20;;;;;12.85;54.96;102041.09;5051036;28;45551;-56
2022/03/14 11:22:23;;;;;;;;;6.80;3.00;;;;;13.02;55.22;102049.94;5052022;28;45486;-57
2022/03/14 11:24:56;;;;;;;;;5.40;4.20;;;;;13.23;54.34;102078.56;5052146;28;45444;-58